Time;durP1;ratioP1;P1;durP2;ratioP2;P2;SDS_P1;SDS_P2;PMS_P1;PMS_P2;Temp;Humidity;BMP_temperature;BMP_pressure;BME280_temperature;BME280_humidity;BME280_pressure;Samples;Min_cycle;Max_cycle;Signal;HPM_P1;HPM_P2
2022/11/14 00:00:32;;;;;;;21.40;16.70;;;;;;;1.31;100.00;97720.75;105171;1289;22502;-79
2022/11/14 00:03:16;;;;;;;22.70;17.40;;;;;;;1.27;100.00;97723.61;105203;1295;22490;-79
2022/11/14 00:05:47;;;;;;;23.00;17.30;;;;;;;1.26;100.00;97727.59;104441;1282;1045578;-80
2022/11/14 00:08:21;;;;;;;19.90;17.10;;;;;;;1.30;100.00;97726.45;105155;1301;22552;-80
2022/11/14 00:10:55;;;;;;;18.10;14.20;;;;;;;1.32;100.00;97732.98;105189;1288;23214;-80
2022/11/14 00:13:26;;;;;;;31.40;14.40;;;;;;;1.25;99.94;97733.85;105225;1303;22474;-79
2022/11/14 00:15:57;;;;;;;39.60;16.30;;;;;;;1.10;99.82;97736.21;105158;1295;26558;-79
2022/11/14 00:18:29;;;;;;;53.50;17.10;;;;;;;0.92;99.58;97735.79;105151;1295;24933;-79
2022/11/14 00:21:00;;;;;;;54.20;17.60;;;;;;;0.78;99.70;97735.40;105165;1304;22621;-79
2022/11/14 00:23:31;;;;;;;46.00;17.80;;;;;;;0.73;100.00;97740.06;105171;1289;22465;-79
2022/11/14 00:26:05;;;;;;;30.20;18.60;;;;;;;0.72;100.00;97738.80;105175;1282;22478;-79
2022/11/14 00:28:36;;;;;;;26.90;16.20;;;;;;;0.78;100.00;97738.92;105127;1296;22572;-79
2022/11/14 00:31:09;;;;;;;22.60;16.30;;;;;;;0.68;100.00;97738.80;105146;1289;22463;-79
2022/11/14 00:33:41;;;;;;;24.20;18.10;;;;;;;0.53;100.00;97739.06;105148;1305;22464;-80
2022/11/14 00:36:12;;;;;;;24.50;16.90;;;;;;;0.42;100.00;97743.58;105136;1304;22466;-78
2022/11/14 00:38:43;;;;;;;24.10;17.30;;;;;;;0.37;100.00;97743.36;105158;1305;22598;-79
2022/11/14 00:41:14;;;;;;;23.00;16.60;;;;;;;0.36;100.00;97740.51;105162;1304;24430;-80
2022/11/14 00:43:45;;;;;;;23.90;16.40;;;;;;;0.31;100.00;97738.98;105156;1291;22470;-80
2022/11/14 00:46:19;;;;;;;24.00;16.40;;;;;;;0.30;100.00;97736.61;105116;1304;22925;-79
2022/11/14 00:48:51;;;;;;;48.60;18.00;;;;;;;0.33;100.00;97730.52;105146;1297;22474;-80
2022/11/14 00:51:22;;;;;;;31.30;16.10;;;;;;;0.39;100.00;97729.13;105149;1305;22474;-79
2022/11/14 00:53:53;;;;;;;43.30;20.80;;;;;;;0.44;100.00;97734.21;105149;1289;22520;-80
2022/11/14 00:56:25;;;;;;;42.50;19.10;;;;;;;0.54;100.00;97730.20;105081;1282;24049;-79
2022/11/14 00:58:56;;;;;;;36.20;16.30;;;;;;;0.66;100.00;97724.64;105164;1288;25300;-79
2022/11/14 01:01:27;;;;;;;33.60;16.10;;;;;;;0.69;100.00;97719.36;105175;1304;22462;-79
2022/11/14 01:03:58;;;;;;;22.20;15.40;;;;;;;0.67;100.00;97716.10;105141;1296;22472;-80
2022/11/14 01:06:30;;;;;;;30.60;15.50;;;;;;;0.63;100.00;97715.91;105130;1296;22483;-79
2022/11/14 01:09:01;;;;;;;32.40;15.60;;;;;;;0.60;100.00;97716.06;105181;1296;22482;-79
2022/11/14 01:11:32;;;;;;;32.50;14.30;;;;;;;0.60;100.00;97708.99;105134;1297;22541;-79
2022/11/14 01:14:05;;;;;;;32.30;14.40;;;;;;;0.61;100.00;97706.47;105152;1275;22457;-80
2022/11/14 01:16:37;;;;;;;31.30;14.30;;;;;;;0.67;100.00;97704.17;105100;1303;22480;-80
2022/11/14 01:19:10;;;;;;;24.10;14.30;;;;;;;0.76;100.00;97702.62;105167;1296;22492;-80
2022/11/14 01:21:42;;;;;;;22.70;13.90;;;;;;;0.87;100.00;97708.45;105184;1288;22484;-79
2022/11/14 01:24:13;;;;;;;22.80;13.10;;;;;;;0.96;100.00;97707.86;105185;1303;22488;-79
2022/11/14 01:26:44;;;;;;;24.10;14.00;;;;;;;1.02;100.00;97711.45;105129;1299;22610;-79
2022/11/14 01:29:15;;;;;;;20.50;12.90;;;;;;;1.07;100.00;97711.23;105158;1304;22472;-80
2022/11/14 01:31:46;;;;;;;19.00;13.10;;;;;;;1.16;100.00;97707.77;105178;1296;22460;-79
2022/11/14 01:34:18;;;;;;;18.10;12.50;;;;;;;1.22;100.00;97702.13;105147;1296;25220;-80
2022/11/14 01:36:49;;;;;;;21.00;12.30;;;;;;;1.15;100.00;97703.35;105095;1304;22977;-79
2022/11/14 01:39:23;;;;;;;24.40;13.70;;;;;;;1.05;100.00;97703.02;105142;1304;22471;-80
2022/11/14 01:41:57;;;;;;;18.90;12.30;;;;;;;0.98;100.00;97699.57;105174;1288;22506;-80
2022/11/14 01:44:51;;;;;;;22.30;11.60;;;;;;;0.83;100.00;97700.83;105171;1297;22907;-79
2022/11/14 01:47:30;;;;;;;19.50;12.00;;;;;;;0.68;100.00;97689.61;105153;1304;22947;-79
2022/11/14 01:50:06;;;;;;;16.30;11.80;;;;;;;0.54;100.00;97685.77;105168;1281;23796;-80
2022/11/14 01:52:40;;;;;;;14.10;11.20;;;;;;;0.48;100.00;97682.83;105187;1304;24259;-79
2022/11/14 01:55:12;;;;;;;15.80;12.40;;;;;;;0.43;100.00;97681.59;105172;1289;22470;-80
2022/11/14 01:57:49;;;;;;;14.30;11.80;;;;;;;0.39;100.00;97686.84;105122;1303;22464;-80
2022/11/14 02:00:20;;;;;;;17.20;12.70;;;;;;;0.32;100.00;97682.70;105186;1288;23814;-80
2022/11/14 02:02:52;;;;;;;13.70;12.20;;;;;;;0.26;100.00;97680.02;105192;1292;25391;-80
2022/11/14 02:05:23;;;;;;;14.30;11.80;;;;;;;0.23;100.00;97681.52;105191;1282;23826;-80
2022/11/14 02:07:55;;;;;;;19.30;12.20;;;;;;;0.21;100.00;97679.22;105159;1281;22507;-80
2022/11/14 02:10:26;;;;;;;14.70;11.50;;;;;;;0.20;100.00;97674.59;105189;1294;22456;-80
2022/11/14 02:13:00;;;;;;;14.90;10.90;;;;;;;0.16;100.00;97667.77;105180;1303;22486;-80
2022/11/14 02:15:32;;;;;;;16.70;11.50;;;;;;;0.12;100.00;97665.24;105173;1285;23444;-80
2022/11/14 02:18:03;;;;;;;21.30;10.00;;;;;;;0.12;100.00;97665.67;105140;1294;22458;-80
2022/11/14 02:20:37;;;;;;;12.80;10.40;;;;;;;0.10;100.00;97663.58;105186;1294;22455;-80
2022/11/14 02:23:12;;;;;;;12.70;10.60;;;;;;;0.08;100.00;97666.09;105191;1302;22464;-80
2022/11/14 02:25:43;;;;;;;14.00;10.40;;;;;;;0.09;100.00;97665.33;105180;1291;25228;-80
2022/11/14 02:28:14;;;;;;;12.20;10.80;;;;;;;0.16;100.00;97671.95;105161;1295;22468;-80
2022/11/14 02:30:45;;;;;;;13.20;11.10;;;;;;;0.25;100.00;97675.00;105217;1281;25253;-80
2022/11/14 02:33:16;;;;;;;17.60;11.30;;;;;;;0.34;100.00;97667.95;105210;1298;22471;-80
2022/11/14 02:35:50;;;;;;;16.00;10.90;;;;;;;0.40;100.00;97661.44;105186;1302;22469;-80
2022/11/14 02:38:21;;;;;;;19.50;12.20;;;;;;;0.39;100.00;97663.00;105118;1303;22486;-80
2022/11/14 02:40:52;;;;;;;20.10;11.20;;;;;;;0.34;100.00;97666.26;105171;1288;25201;-79
2022/11/14 02:43:23;;;;;;;15.90;10.70;;;;;;;0.32;100.00;97661.63;105158;1285;25316;-80
2022/11/14 02:45:55;;;;;;;23.40;12.80;;;;;;;0.32;100.00;97661.84;105179;1297;23226;-80
2022/11/14 02:48:28;;;;;;;24.80;13.20;;;;;;;0.34;100.00;97661.92;105142;1297;22509;-80
2022/11/14 02:50:59;;;;;;;26.30;12.50;;;;;;;0.37;100.00;97662.91;105204;1288;22512;-79
2022/11/14 02:53:30;;;;;;;17.10;12.00;;;;;;;0.42;100.00;97663.55;105220;1292;22477;-80
2022/11/14 02:56:02;;;;;;;19.40;12.80;;;;;;;0.48;100.00;97664.50;105186;1280;22470;-79
2022/11/14 02:58:33;;;;;;;19.00;12.60;;;;;;;0.55;100.00;97664.99;105140;1303;22771;-80
2022/11/14 03:01:06;;;;;;;17.90;11.20;;;;;;;0.64;100.00;97663.05;105197;1303;23528;-80
2022/11/14 03:03:38;;;;;;;18.80;13.40;;;;;;;0.63;100.00;97659.88;105195;1288;22461;-80
2022/11/14 03:06:10;;;;;;;19.10;12.70;;;;;;;0.48;100.00;97648.44;105223;1281;22485;-80
2022/11/14 03:08:41;;;;;;;15.10;11.80;;;;;;;0.36;100.00;97643.36;105177;1303;22476;-79
2022/11/14 03:11:13;;;;;;;19.00;12.00;;;;;;;0.28;100.00;97645.26;105215;1295;22470;-79
2022/11/14 03:13:44;;;;;;;16.70;11.40;;;;;;;0.23;100.00;97647.05;105193;1303;24403;-79
2022/11/14 03:16:16;;;;;;;20.20;11.20;;;;;;;0.20;100.00;97645.84;105142;1303;22519;-79
2022/11/14 03:18:47;;;;;;;21.10;12.10;;;;;;;0.20;100.00;97641.83;105195;1288;22461;-79
2022/11/14 03:21:21;;;;;;;23.50;11.50;;;;;;;0.25;100.00;97646.67;105166;1288;22454;-80
2022/11/14 03:23:52;;;;;;;24.80;12.80;;;;;;;0.31;100.00;97645.17;105165;1296;22559;-79
2022/11/14 03:26:23;;;;;;;24.90;11.50;;;;;;;0.43;100.00;97652.61;105157;1296;22473;-79
2022/11/14 03:28:55;;;;;;;21.90;12.00;;;;;;;0.52;100.00;97646.61;105146;1296;22504;-79
2022/11/14 03:31:26;;;;;;;21.50;11.20;;;;;;;0.56;100.00;97647.90;105180;1285;22450;-79
2022/11/14 03:33:57;;;;;;;27.80;10.80;;;;;;;0.63;100.00;97647.27;105147;1288;22585;-79
2022/11/14 03:36:28;;;;;;;25.00;9.40;;;;;;;0.64;100.00;97651.33;105129;1288;22476;-79
2022/11/14 03:39:02;;;;;;;20.30;11.20;;;;;;;0.63;100.00;97648.95;105142;1281;25338;-79
2022/11/14 03:41:33;;;;;;;28.40;10.30;;;;;;;0.64;100.00;97649.48;105188;1288;22497;-79
2022/11/14 03:44:06;;;;;;;13.40;9.10;;;;;;;0.65;100.00;97652.34;105171;1288;23339;-79
2022/11/14 03:46:38;;;;;;;18.70;8.80;;;;;;;0.63;100.00;97649.35;105126;1304;25635;-79
2022/11/14 03:49:11;;;;;;;14.60;9.20;;;;;;;0.62;100.00;97651.00;105138;1296;22457;-79
2022/11/14 03:51:42;;;;;;;15.10;8.70;;;;;;;0.63;100.00;97646.23;105165;1296;25214;-79
2022/11/14 03:54:13;;;;;;;14.20;8.40;;;;;;;0.65;100.00;97641.73;105150;1304;24331;-79
2022/11/14 03:56:45;;;;;;;15.40;7.90;;;;;;;0.68;100.00;97648.17;105102;1303;26823;-79
2022/11/14 03:59:18;;;;;;;17.90;8.90;;;;;;;0.73;100.00;97645.30;105199;1295;22492;-79
2022/11/14 04:01:49;;;;;;;15.50;7.90;;;;;;;0.82;100.00;97648.48;105218;1281;22455;-79
2022/11/14 04:04:23;;;;;;;13.20;7.70;;;;;;;0.81;100.00;97644.94;105213;1281;23089;-79
2022/11/14 04:06:55;;;;;;;18.00;8.20;;;;;;;0.79;100.00;97649.15;105137;1303;22482;-79
2022/11/14 04:09:28;;;;;;;10.90;7.80;;;;;;;0.80;100.00;97651.56;105169;1280;22464;-79
2022/11/14 04:11:59;;;;;;;14.40;8.00;;;;;;;0.80;100.00;97644.38;105202;1303;22510;-79
2022/11/14 04:14:30;;;;;;;13.10;8.00;;;;;;;0.80;100.00;97642.09;105210;1303;22474;-79
2022/11/14 04:17:02;;;;;;;14.70;8.50;;;;;;;0.83;100.00;97638.01;105154;1288;22451;-79
2022/11/14 04:19:33;;;;;;;12.70;8.50;;;;;;;0.88;100.00;97636.17;105159;1296;22471;-79
2022/11/14 04:22:07;;;;;;;14.60;9.00;;;;;;;0.99;100.00;97634.22;105175;1296;22515;-79
2022/11/14 04:24:38;;;;;;;21.80;10.50;;;;;;;1.04;100.00;97630.44;105145;1281;24796;-79
2022/11/14 04:27:10;;;;;;;24.10;9.50;;;;;;;1.06;100.00;97628.72;105109;1303;22476;-79
2022/11/14 04:29:41;;;;;;;17.90;9.50;;;;;;;1.04;100.00;97625.41;105177;1302;22472;-79
2022/11/14 04:32:12;;;;;;;14.50;9.50;;;;;;;1.01;100.00;97623.64;105184;1298;22483;-79
2022/11/14 04:34:43;;;;;;;19.60;9.50;;;;;;;1.03;100.00;97628.50;105165;1279;22562;-79
2022/11/14 04:37:14;;;;;;;20.80;8.70;;;;;;;1.01;100.00;97627.33;105103;1295;23474;-79
2022/11/14 04:39:46;;;;;;;16.50;9.00;;;;;;;0.95;100.00;97629.09;105189;1301;23073;-79
2022/11/14 04:42:17;;;;;;;14.50;8.60;;;;;;;0.91;100.00;97623.93;105179;1288;22463;-79
2022/11/14 04:44:48;;;;;;;13.00;8.30;;;;;;;0.90;100.00;97623.81;105192;1303;22504;-79
2022/11/14 04:47:19;;;;;;;13.00;8.90;;;;;;;0.92;100.00;97621.00;105120;1295;30059;-79
2022/11/14 04:49:51;;;;;;;16.50;8.80;;;;;;;1.00;100.00;97617.92;105195;1294;24414;-79
2022/11/14 04:52:22;;;;;;;20.20;9.00;;;;;;;1.05;100.00;97624.49;105179;1288;25366;-79
2022/11/14 04:54:53;;;;;;;12.40;9.10;;;;;;;1.10;100.00;97620.85;105179;1278;25262;-79
2022/11/14 04:57:24;;;;;;;12.60;8.70;;;;;;;1.17;100.00;97616.36;105160;1288;24245;-79
2022/11/14 04:59:56;;;;;;;11.50;7.10;;;;;;;1.21;100.00;97614.20;105220;1279;25329;-79
2022/11/14 05:02:27;;;;;;;12.60;7.40;;;;;;;1.15;100.00;97609.02;105191;1295;22461;-79
2022/11/14 05:04:58;;;;;;;11.60;7.90;;;;;;;1.14;100.00;97607.13;105212;1303;22488;-79
2022/11/14 05:07:29;;;;;;;13.70;7.80;;;;;;;1.18;100.00;97606.84;105136;1288;25113;-79
2022/11/14 05:10:00;;;;;;;9.50;6.20;;;;;;;1.17;100.00;97599.05;105199;1303;23216;-79
2022/11/14 05:12:32;;;;;;;11.00;6.90;;;;;;;1.12;100.00;97600.95;105158;1288;22454;-79
2022/11/14 05:15:03;;;;;;;11.40;7.10;;;;;;;0.98;100.00;97600.48;105183;1303;22509;-79
2022/11/14 05:17:36;;;;;;;11.60;7.20;;;;;;;0.84;100.00;97602.16;105149;1288;25384;-79
2022/11/14 05:20:09;;;;;;;10.60;7.60;;;;;;;0.82;100.00;97595.76;105190;1281;22490;-80
2022/11/14 05:22:40;;;;;;;8.60;7.00;;;;;;;0.83;100.00;97588.47;105235;1303;22469;-79
2022/11/14 05:25:12;;;;;;;9.50;7.60;;;;;;;0.70;100.00;97582.98;105203;1303;25343;-79
2022/11/14 05:27:46;;;;;;;13.00;7.20;;;;;;;0.58;100.00;97588.50;105135;1275;22467;-79
2022/11/14 05:30:18;;;;;;;8.70;7.00;;;;;;;0.44;100.00;97587.41;105171;1288;22527;-79
2022/11/14 05:32:51;;;;;;;9.90;7.00;;;;;;;0.34;100.00;97585.61;105201;1287;22557;-79
2022/11/14 05:35:22;;;;;;;10.30;7.40;;;;;;;0.24;100.00;97585.20;105174;1295;22478;-79
2022/11/14 05:37:56;;;;;;;8.20;7.20;;;;;;;0.18;100.00;97583.16;105174;1295;22458;-79
2022/11/14 05:40:27;;;;;;;8.90;6.40;;;;;;;0.11;100.00;97581.00;105161;1287;25321;-79
2022/11/14 05:43:01;;;;;;;8.70;6.60;;;;;;;0.02;100.00;97576.97;105168;1282;22474;-80
2022/11/14 05:45:32;;;;;;;8.90;6.60;;;;;;;0.00;100.00;97574.46;105161;1295;22509;-79
2022/11/14 05:48:04;;;;;;;8.40;7.10;;;;;;;0.04;100.00;97573.49;105178;1301;22931;-79
2022/11/14 05:50:35;;;;;;;9.00;6.80;;;;;;;0.05;100.00;97568.97;105155;1275;22529;-79
2022/11/14 05:53:09;;;;;;;9.30;7.00;;;;;;;0.09;100.00;97570.08;105182;1303;22467;-79
2022/11/14 05:55:40;;;;;;;9.30;7.70;;;;;;;0.13;100.00;97576.00;105144;1285;23439;-79
2022/11/14 05:58:11;;;;;;;11.40;8.30;;;;;;;0.14;100.00;97578.17;105128;1303;22507;-79
2022/11/14 06:00:43;;;;;;;9.40;7.10;;;;;;;0.16;100.00;97580.74;105172;1287;25314;-79
2022/11/14 06:03:15;;;;;;;10.10;7.90;;;;;;;0.17;100.00;97582.11;105219;1279;22491;-80
2022/11/14 06:05:46;;;;;;;9.20;7.30;;;;;;;0.21;100.00;97582.01;105165;1302;22454;-79
2022/11/14 06:08:21;;;;;;;10.60;8.00;;;;;;;0.26;100.00;97583.09;105160;1288;22640;-79
2022/11/14 06:10:52;;;;;;;8.90;7.30;;;;;;;0.29;100.00;97585.30;105183;1296;22503;-79
2022/11/14 06:13:24;;;;;;;9.60;7.70;;;;;;;0.33;100.00;97584.04;105196;1300;22465;-79
2022/11/14 06:15:58;;;;;;;9.10;6.80;;;;;;;0.39;100.00;97581.95;105188;1296;25486;-80
2022/11/14 06:18:30;;;;;;;9.70;7.70;;;;;;;0.50;100.00;97583.76;105164;1282;25296;-80
2022/11/14 06:21:08;;;;;;;10.40;7.70;;;;;;;0.61;100.00;97576.61;105306;1281;22514;-80
2022/11/14 06:23:40;;;;;;;11.70;7.40;;;;;;;0.75;100.00;97575.89;105311;1297;24001;-80
2022/11/14 06:26:16;;;;;;;9.10;7.20;;;;;;;0.95;100.00;97579.17;105198;1296;22482;-80
2022/11/14 06:28:48;;;;;;;8.10;6.90;;;;;;;1.27;100.00;97580.20;105204;1304;25292;-81
2022/11/14 06:31:20;;;;;;;8.20;6.80;;;;;;;1.62;100.00;97577.91;105174;1303;22489;-80
2022/11/14 06:33:52;;;;;;;9.30;7.80;;;;;;;1.91;100.00;97578.20;105162;1288;22472;-81
2022/11/14 06:36:23;;;;;;;9.30;7.70;;;;;;;2.10;100.00;97571.74;105166;1280;22495;-80
2022/11/14 06:38:55;;;;;;;8.60;7.20;;;;;;;2.53;100.00;97575.08;105177;1295;22651;-81
2022/11/14 06:41:27;;;;;;;10.10;8.50;;;;;;;3.01;100.00;97573.77;105196;1304;24314;-81
2022/11/14 06:44:02;;;;;;;7.60;6.80;;;;;;;3.55;100.00;97579.61;105175;1304;24337;-81
2022/11/14 06:46:33;;;;;;;10.50;8.20;;;;;;;4.10;100.00;97582.14;105117;1304;22471;-81
2022/11/14 06:49:05;;;;;;;9.10;7.50;;;;;;;4.79;100.00;97579.30;105147;1297;22480;-81
2022/11/14 06:51:36;;;;;;;8.10;7.10;;;;;;;5.50;100.00;97577.62;105218;1299;22464;-81
2022/11/14 06:54:10;;;;;;;8.90;7.80;;;;;;;6.13;100.00;97572.45;105168;1304;22488;-81
2022/11/14 06:56:42;;;;;;;8.30;6.70;;;;;;;6.83;100.00;97576.96;105147;1304;23775;-81
2022/11/14 06:59:14;;;;;;;8.40;6.60;;;;;;;7.49;99.97;97573.54;105169;1299;22467;-81
2022/11/14 07:01:45;;;;;;;7.30;6.30;;;;;;;7.75;98.55;97571.71;105193;1304;22479;-81
2022/11/14 07:04:19;;;;;;;7.50;6.40;;;;;;;7.99;96.77;97568.72;105172;1278;22468;-82
2022/11/14 07:06:51;;;;;;;9.20;7.20;;;;;;;8.04;94.96;97565.55;105099;1306;28421;-81
2022/11/14 07:09:24;;;;;;;9.40;7.40;;;;;;;8.30;94.96;97566.77;105157;1288;22560;-82
2022/11/14 07:11:56;;;;;;;9.80;7.00;;;;;;;8.80;94.80;97571.87;105205;1297;22467;-79
2022/11/14 07:14:27;;;;;;;7.70;6.90;;;;;;;9.18;92.62;97566.95;105158;1304;22470;-79
2022/11/14 07:16:59;;;;;;;8.40;7.00;;;;;;;9.17;90.74;97560.06;105131;1281;30502;-79
2022/11/14 07:19:32;;;;;;;9.20;7.50;;;;;;;9.43;90.90;97551.59;105177;1281;25268;-79
2022/11/14 07:22:03;;;;;;;7.80;6.60;;;;;;;9.68;89.60;97545.13;105157;1278;22480;-79
2022/11/14 07:24:39;;;;;;;7.50;6.80;;;;;;;10.03;89.40;97539.91;105199;1303;23811;-79
2022/11/14 07:27:11;;;;;;;8.20;6.60;;;;;;;10.55;89.46;97543.16;105144;1303;22456;-79
2022/11/14 07:29:42;;;;;;;7.00;6.30;;;;;;;11.10;89.56;97532.23;105165;1303;22556;-79
2022/11/14 07:32:14;;;;;;;9.70;7.10;;;;;;;11.63;88.51;97531.47;105181;1303;22526;-79
2022/11/14 07:34:46;;;;;;;8.80;6.60;;;;;;;12.04;87.72;97532.42;105175;1303;22458;-79
2022/11/14 07:37:18;;;;;;;8.90;6.90;;;;;;;12.36;86.69;97535.25;105122;1303;22489;-79
2022/11/14 07:39:50;;;;;;;8.80;6.90;;;;;;;12.58;84.49;97534.70;105186;1294;25317;-80
2022/11/14 07:42:22;;;;;;;8.50;7.20;;;;;;;12.65;83.47;97531.89;105167;1282;22466;-80
2022/11/14 07:44:53;;;;;;;9.20;7.30;;;;;;;12.82;83.14;97533.29;105190;1303;22508;-80
2022/11/14 07:47:25;;;;;;;8.80;6.60;;;;;;;13.10;83.50;97533.54;105125;1303;22469;-79
2022/11/14 07:49:56;;;;;;;9.50;6.60;;;;;;;13.35;83.69;97531.45;105178;1303;22480;-79
2022/11/14 07:52:30;;;;;;;10.70;7.80;;;;;;;13.37;81.02;97531.70;105201;1289;22510;-80
2022/11/14 07:55:01;;;;;;;8.20;6.60;;;;;;;13.28;80.87;97534.83;105168;1297;22738;-79
2022/11/14 07:57:32;;;;;;;9.00;6.50;;;;;;;13.30;80.06;97538.17;105146;1288;25297;-80
2022/11/14 08:00:06;;;;;;;9.40;7.70;;;;;;;12.88;76.34;97539.02;105164;1304;22466;-80
2022/11/14 08:02:38;;;;;;;9.30;7.20;;;;;;;12.42;76.00;97526.95;105166;1284;22470;-80
2022/11/14 08:05:10;;;;;;;9.50;7.60;;;;;;;11.93;74.96;97521.94;105188;1288;24504;-79
2022/11/14 08:07:41;;;;;;;10.40;8.10;;;;;;;11.43;74.27;97522.16;105137;1304;25779;-79
2022/11/14 08:10:13;;;;;;;8.60;7.30;;;;;;;11.09;74.02;97524.31;105183;1295;22571;-79
2022/11/14 08:12:48;;;;;;;9.10;7.10;;;;;;;10.75;74.26;97526.11;105180;1304;22965;-79
2022/11/14 08:15:19;;;;;;;8.50;6.70;;;;;;;10.30;73.19;97523.45;105145;1304;25427;-79
2022/11/14 08:17:50;;;;;;;9.60;7.00;;;;;;;9.64;73.77;97520.68;105103;1306;22465;-79
2022/11/14 08:20:22;;;;;;;8.40;6.50;;;;;;;9.26;75.48;97521.64;105168;1297;22476;-79
2022/11/14 08:22:53;;;;;;;14.40;9.50;;;;;;;8.92;75.88;97519.84;105172;1304;24404;-79
2022/11/14 08:25:27;;;;;;;16.90;11.60;;;;;;;8.47;77.05;97520.90;105174;1304;22606;-79
2022/11/14 08:27:58;;;;;;;16.60;11.60;;;;;;;8.19;78.75;97518.18;105114;1298;22606;-79
2022/11/14 08:30:30;;;;;;;14.60;10.90;;;;;;;8.05;80.00;97519.55;105165;1303;23954;-80
2022/11/14 08:33:03;;;;;;;15.30;10.40;;;;;;;8.13;80.80;97515.07;105198;1289;23145;-79
2022/11/14 08:35:36;;;;;;;13.50;10.30;;;;;;;7.99;80.45;97509.09;105207;1304;22470;-80
2022/11/14 08:38:07;;;;;;;17.70;12.80;;;;;;;7.91;81.23;97511.65;105132;1304;22480;-79
2022/11/14 08:40:40;;;;;;;15.90;13.00;;;;;;;7.71;81.53;97516.17;105182;1304;22513;-79
2022/11/14 08:43:12;;;;;;;15.10;12.80;;;;;;;7.61;81.95;97513.46;105176;1287;22472;-79
2022/11/14 08:45:44;;;;;;;14.50;12.70;;;;;;;7.39;81.66;97513.52;105140;1304;22464;-79
2022/11/14 08:48:18;;;;;;;15.70;14.00;;;;;;;7.18;81.97;97514.05;105088;1305;23171;-79
2022/11/14 08:50:50;;;;;;;15.40;13.60;;;;;;;7.03;82.86;97514.30;105177;1289;22531;-79
2022/11/14 08:53:21;;;;;;;16.00;14.30;;;;;;;7.01;83.58;97513.81;105198;1298;24258;-79
2022/11/14 08:55:52;;;;;;;18.20;15.10;;;;;;;6.99;84.31;97508.09;105169;1291;22623;-79
2022/11/14 08:58:24;;;;;;;15.20;12.70;;;;;;;7.10;84.99;97505.11;105126;1288;22467;-79
2022/11/14 09:00:59;;;;;;;16.30;13.70;;;;;;;7.25;85.33;97501.38;105203;1278;22485;-79
2022/11/14 09:03:30;;;;;;;17.60;14.80;;;;;;;7.19;84.43;97501.96;105185;1287;22507;-79
2022/11/14 09:06:02;;;;;;;16.60;13.90;;;;;;;7.18;85.29;97500.14;105181;1282;22473;-80
2022/11/14 09:08:35;;;;;;;16.20;14.10;;;;;;;7.11;84.79;97497.54;105148;1303;25648;-79
2022/11/14 09:11:09;;;;;;;16.50;13.60;;;;;;;7.06;85.23;97497.98;105210;1300;24328;-79
2022/11/14 09:13:41;;;;;;;17.30;14.80;;;;;;;7.01;85.42;97499.58;105241;1303;22463;-79
2022/11/14 09:16:12;;;;;;;17.30;13.80;;;;;;;6.97;85.57;97494.30;105166;1289;23359;-76
2022/11/14 09:18:43;;;;;;;18.00;15.00;;;;;;;6.83;85.69;97496.52;105181;1306;22488;-80
2022/11/14 09:21:14;;;;;;;15.70;13.80;;;;;;;6.79;86.63;97493.41;105181;1306;22477;-82
2022/11/14 09:23:48;;;;;;;17.00;14.50;;;;;;;6.78;86.89;97493.59;105165;1295;22598;-82
2022/11/14 09:26:19;;;;;;;18.00;15.10;;;;;;;6.78;87.58;97493.75;105153;1306;22577;-82
2022/11/14 09:28:50;;;;;;;16.40;14.60;;;;;;;6.94;88.20;97494.77;105161;1304;24270;-82
2022/11/14 09:31:22;;;;;;;18.00;14.80;;;;;;;7.10;87.96;97496.35;105154;1289;24239;-82
2022/11/14 09:33:53;;;;;;;18.00;15.00;;;;;;;7.14;87.72;97495.78;105158;1291;22519;-82
2022/11/14 09:36:26;;;;;;;18.30;15.30;;;;;;;7.14;87.59;97495.33;105115;1291;23829;-82
2022/11/14 09:38:57;;;;;;;19.60;15.80;;;;;;;7.13;87.81;97490.81;105170;1300;22462;-82
2022/11/14 09:41:45;;;;;;;17.60;15.60;;;;;;;7.21;87.92;97486.92;105174;1295;22469;-82
2022/11/14 09:44:40;;;;;;;17.60;15.00;;;;;;;7.26;87.68;97487.23;105169;1302;22508;-82
2022/11/14 09:47:16;;;;;;;18.50;15.60;;;;;;;7.31;87.94;97485.04;105111;1281;23098;-82
2022/11/14 09:49:52;;;;;;;17.60;15.30;;;;;;;7.46;88.38;97480.21;105216;1289;22510;-82
2022/11/14 09:52:31;;;;;;;15.80;14.10;;;;;;;7.63;88.79;97481.39;105177;1303;25422;-81
2022/11/14 09:55:10;;;;;;;16.00;13.10;;;;;;;7.88;88.50;97475.70;105179;1292;22483;-82
2022/11/14 09:57:43;;;;;;;17.50;14.50;;;;;;;7.89;87.33;97472.92;105144;1288;25136;-82
2022/11/14 10:00:21;;;;;;;16.90;14.00;;;;;;;7.82;87.62;97469.53;105243;1295;22464;-82
2022/11/14 10:03:06;;;;;;;17.40;15.50;;;;;;;7.97;88.27;97471.14;105244;1303;22477;-82
2022/11/14 10:06:03;;;;;;;19.90;15.90;;;;;;;8.13;88.04;97469.44;105204;1298;22488;-81
2022/11/14 10:08:53;;;;;;;17.10;15.30;;;;;;;8.02;87.09;97469.73;105159;1278;22472;-79
2022/11/14 10:11:30;;;;;;;18.40;15.50;;;;;;;8.05;87.44;97470.05;105193;1288;25307;-79
2022/11/14 10:14:40;;;;;;;17.40;15.60;;;;;;;8.08;87.26;97468.63;105249;1289;22474;-79
2022/11/14 10:17:24;;;;;;;19.20;15.50;;;;;;;8.08;87.44;97468.84;105163;1294;25345;-80
2022/11/14 10:20:01;;;;;;;16.80;14.80;;;;;;;8.01;87.06;97463.02;105178;1295;22510;-79
2022/11/14 10:22:51;;;;;;;20.00;17.50;;;;;;;7.93;87.23;97461.58;105284;1289;22466;-79
2022/11/14 10:25:27;;;;;;;20.60;18.40;;;;;;;7.96;87.83;97455.71;105279;1303;23786;-79
2022/11/14 10:28:16;;;;;;;20.10;17.70;;;;;;;8.05;87.60;97449.63;105229;1303;22490;-79
2022/11/14 10:30:57;;;;;;;20.60;17.20;;;;;;;8.16;87.99;97443.08;105288;1282;22468;-79
2022/11/14 10:33:42;;;;;;;17.70;15.50;;;;;;;8.26;87.71;97437.98;105292;1303;25380;-79
2022/11/14 10:36:27;;;;;;;19.40;16.30;;;;;;;8.24;87.35;97430.02;105175;1303;22499;-78
2022/11/14 10:39:08;;;;;;;20.50;16.20;;;;;;;8.20;87.42;97428.19;105192;1287;22468;-79
2022/11/14 10:41:40;;;;;;;17.80;15.90;;;;;;;8.22;87.52;97421.09;105176;1282;22480;-79
2022/11/14 10:44:18;;;;;;;18.50;15.60;;;;;;;8.23;87.59;97416.98;105212;1296;22474;-79
2022/11/14 10:46:56;;;;;;;18.80;16.80;;;;;;;8.23;87.59;97415.97;105169;1303;22518;-79
2022/11/14 10:49:32;;;;;;;19.40;17.10;;;;;;;8.23;88.10;97411.42;105182;1291;22467;-79
2022/11/14 10:52:09;;;;;;;18.10;15.90;;;;;;;8.33;88.24;97412.33;105162;1298;22459;-79
2022/11/14 10:54:45;;;;;;;17.80;15.60;;;;;;;8.42;88.20;97414.45;105128;1306;22468;-79
2022/11/14 10:57:21;;;;;;;18.20;16.10;;;;;;;8.56;88.44;97408.30;105123;1294;24297;-80
2022/11/14 10:59:54;;;;;;;18.60;15.80;;;;;;;8.53;87.51;97402.34;105215;1303;24513;-79
2022/11/14 11:02:25;;;;;;;18.00;15.70;;;;;;;8.46;87.54;97400.89;105174;1304;22502;-80
2022/11/14 11:05:14;;;;;;;18.60;15.70;;;;;;;8.54;88.10;97395.27;105211;1288;23120;-80
2022/11/14 11:13:37;;;;;;;19.40;15.90;;;;;;;8.56;87.46;97389.63;105180;1281;22485;-80
2022/11/14 11:16:13;;;;;;;20.20;18.00;;;;;;;8.53;87.41;97388.44;105184;1304;22480;-80
2022/11/14 11:18:44;;;;;;;22.30;18.20;;;;;;;8.50;87.43;97393.33;105250;1303;22471;-80
2022/11/14 11:21:18;;;;;;;20.90;18.40;;;;;;;8.34;87.04;97391.82;105149;1288;22521;-80
2022/11/14 11:23:54;;;;;;;20.90;18.60;;;;;;;8.24;87.44;97391.84;105186;1298;23509;-79
2022/11/14 11:26:27;;;;;;;23.10;20.00;;;;;;;8.03;87.67;97388.36;105198;1303;22520;-80
2022/11/14 11:29:08;;;;;;;24.20;20.70;;;;;;;7.95;88.42;97393.39;105147;1305;23030;-79
2022/11/14 11:31:54;;;;;;;22.40;19.50;;;;;;;8.16;89.01;97394.73;105215;1298;24363;-80
2022/11/14 11:34:28;;;;;;;24.70;21.50;;;;;;;8.24;88.38;97398.55;105201;1306;22462;-80
2022/11/14 11:37:06;;;;;;;24.50;20.60;;;;;;;8.20;87.98;97398.45;105116;1281;27437;-79
2022/11/14 11:39:43;;;;;;;22.50;19.10;;;;;;;8.17;88.09;97400.11;105202;1306;22536;-79
2022/11/14 11:42:24;;;;;;;23.60;21.00;;;;;;;8.14;87.89;97398.63;105172;1288;22455;-79
2022/11/14 11:44:57;;;;;;;;;;;;;;;7.91;87.63;97398.44;105201;1305;22456;-79
2022/11/14 11:47:34;;;;;;;25.60;22.10;;;;;;;7.58;87.80;97398.83;105100;1297;29841;-79
2022/11/14 11:50:14;;;;;;;26.40;20.20;;;;;;;7.47;88.53;97393.74;105191;1294;22472;-79